Gil Vicente — CSKG — position and weather

sailwx.info

Track history (hours):
 
Tides and Currents Weather Stations Pressure Air Temp Water Temp Dewpoint Dewpoint Depression Visibility Wind Speed Wind Dir Waves Ship Positions

Gil Vicente

Last reported at 2017-Mar-26 12:33 UTC. Time now 2017-Mar-26 13:02 UTC.
Position N 38°39' W 009°05'.

Length 49 m.

Type: Passenger vessel. MMSI: 263701390.

Date/timePositionNaut miles runAvg speedWind from/ knotsBaromVisibWave heightAir tempDewpointWater temp
2017-Mar-26 12:33N 38°39' W 009°05'1 1.4
2017-Mar-26 11:33N 38°40' W 009°06'0 0.0
2017-Mar-26 10:33N 38°40' W 009°06'0 0.1
2017-Mar-26 09:33N 38°40' W 009°06'0 0.1
2017-Mar-26 08:33N 38°40' W 009°06'0 0.0
2017-Mar-26 07:33N 38°40' W 009°06'0 0.4
2017-Mar-26 06:33N 38°40' W 009°06'1 1.4
2017-Mar-26 05:33N 38°40' W 009°07'2 1.7
2017-Mar-26 04:33N 38°42' W 009°08'4 1.8
2017-Mar-26 02:24N 38°39' W 009°05'0 0.3
2017-Mar-26 01:33N 38°39' W 009°05'0 0.3
2017-Mar-26 00:33N 38°39' W 009°05'0 0.1
2017-Mar-25 23:33N 38°39' W 009°05'1 1.4
2017-Mar-25 22:33N 38°40' W 009°06'1 1.3
2017-Mar-25 21:31N 38°39' W 009°05'0 0.0
2017-Mar-24 21:29N 38°39' W 009°05'4 4.0
2017-Mar-24 20:33N 38°42' W 009°08'3 2.7
2017-Mar-24 19:33N 38°40' W 009°06'3 2.8
2017-Mar-24 18:33N 38°42' W 009°08'0 0.4
2017-Mar-24 17:33N 38°42' W 009°08'1 1.2
2017-Mar-24 16:33N 38°41' W 009°08'3 3.1
2017-Mar-24 15:33N 38°39' W 009°05'1 1.4
2017-Mar-24 14:33N 38°40' W 009°06'0 0.2
2017-Mar-24 13:33N 38°40' W 009°06'1 1.0
2017-Mar-24 12:32N 38°39' W 009°05'0 0.0
2017-Mar-24 11:33N 38°39' W 009°05'3 2.8
2017-Mar-24 10:33N 38°41' W 009°08'3 2.7
2017-Mar-24 09:33N 38°39' W 009°05'1 1.1
2017-Mar-24 08:33N 38°40' W 009°06'3 2.9
2017-Mar-24 07:33N 38°42' W 009°08'0 0.3
2017-Mar-24 06:33N 38°42' W 009°08'0 0.1
2017-Mar-24 05:33N 38°42' W 009°08'4 1.3
2017-Mar-24 02:24N 38°39' W 009°05'0 0.5
2017-Mar-24 01:33N 38°39' W 009°05'0 0.2
2017-Mar-24 00:33N 38°39' W 009°05'0 0.3
2017-Mar-23 23:33N 38°39' W 009°05'1 0.9
2017-Mar-23 22:33N 38°40' W 009°06'0 0.0
2017-Mar-23 21:33N 38°40' W 009°06'1 0.4
2017-Mar-23 18:11N 38°39' W 009°05'4 6.0
2017-Mar-23 17:33N 38°42' W 009°08'0 0.1
2017-Mar-23 16:33N 38°42' W 009°08'1 1.3
2017-Mar-23 15:34N 38°41' W 009°08'0 0.1
2017-Mar-23 14:34N 38°41' W 009°08'0 0.3
2017-Mar-23 13:34N 38°41' W 009°08'0 0.5
2017-Mar-23 12:34N 38°41' W 009°08'1 0.7
2017-Mar-23 11:33N 38°40' W 009°08'3 2.6
2017-Mar-23 10:33N 38°39' W 009°05'2 2.3
2017-Mar-23 09:34N 38°40' W 009°07'2 0.8
2017-Mar-23 06:33N 38°42' W 009°08'0 0.0
2017-Mar-23 05:33N 38°42' W 009°08'4 4.2
2017-Mar-23 04:33N 38°39' W 009°05'0 0.0
2017-Mar-23 03:33N 38°39' W 009°05'0 0.0
2017-Mar-23 02:33N 38°39' W 009°05'1 0.5
2017-Mar-23 01:33N 38°39' W 009°05'0 0.2
2017-Mar-23 00:33N 38°39' W 009°05'0 0.3
2017-Mar-22 23:33N 38°39' W 009°05'1 1.1
2017-Mar-22 22:33N 38°40' W 009°07'0 0.2
2017-Mar-22 21:33N 38°40' W 009°07'2 1.8
2017-Mar-22 20:33N 38°39' W 009°05'0 0.0
2017-Mar-22 19:33N 38°39' W 009°05'2 1.5
2017-Mar-22 18:31N 38°40' W 009°07'2 2.4
2017-Mar-22 17:33N 38°42' W 009°08'1 0.5
2017-Mar-22 16:33N 38°42' W 009°08'2 1.8
2017-Mar-22 15:33N 38°41' W 009°08'0 0.1
2017-Mar-22 14:33N 38°41' W 009°08'0 0.1
2017-Mar-22 13:33N 38°41' W 009°08'0 0.1
2017-Mar-22 12:33N 38°41' W 009°08'0 0.2
2017-Mar-22 11:33N 38°41' W 009°08'3 2.9
2017-Mar-22 10:33N 38°39' W 009°05'4 4.2
2017-Mar-22 09:33N 38°42' W 009°08'0 0.0
2017-Mar-22 08:33N 38°42' W 009°08'2 2.4
2017-Mar-22 07:33N 38°40' W 009°07'2 0.2
2017-Mar-21 21:20N 38°39' W 009°05'3 4.3
2017-Mar-21 20:33N 38°42' W 009°08'2 2.0
2017-Mar-21 19:33N 38°40' W 009°07'2 1.9
2017-Mar-21 18:33N 38°42' W 009°08'1 0.9
2017-Mar-21 17:33N 38°42' W 009°08'1 1.0
2017-Mar-21 16:33N 38°41' W 009°08'3 3.2
2017-Mar-21 15:33N 38°39' W 009°05'2 1.6
2017-Mar-21 14:33N 38°40' W 009°07'0 0.0
2017-Mar-21 13:33N 38°40' W 009°06'1 1.5
2017-Mar-21 12:33N 38°39' W 009°05'0 0.0
2017-Mar-21 11:33N 38°39' W 009°05'3 2.8
2017-Mar-21 10:33N 38°41' W 009°08'3 2.8
2017-Mar-21 09:33N 38°39' W 009°05'1 1.3
2017-Mar-21 08:33N 38°40' W 009°06'3 2.7
2017-Mar-21 07:33N 38°42' W 009°08'0 0.4
2017-Mar-21 06:33N 38°42' W 009°08'0 0.0
2017-Mar-21 05:33N 38°42' W 009°08'4 4.1
2017-Mar-21 04:33N 38°39' W 009°05'0 0.0
2017-Mar-21 03:33N 38°39' W 009°05'0 0.0
2017-Mar-21 02:33N 38°39' W 009°05'0 0.1
2017-Mar-21 01:32N 38°39' W 009°05'0 0.4
2017-Mar-21 00:33N 38°39' W 009°05'0 0.2
2017-Mar-20 23:32N 38°39' W 009°05'1 1.5
2017-Mar-20 22:33N 38°40' W 009°07'0 0.3
2017-Mar-20 21:33N 38°40' W 009°06'1 1.5
2017-Mar-20 20:33N 38°39' W 009°05'0 0.0
2017-Mar-20 19:33N 38°39' W 009°05'1 0.9
2017-Mar-20 18:33N 38°39' W 009°06'3 3.1
2017-Mar-20 17:33N 38°42' W 009°08'0 0.2
2017-Mar-20 16:33N 38°42' W 009°08'1 1.3
2017-Mar-20 15:33N 38°41' W 009°08'0 0.1
2017-Mar-20 14:33N 38°41' W 009°08'0 0.0
2017-Mar-20 13:33N 38°41' W 009°08'0 0.0
2017-Mar-20 12:33N 38°41' W 009°08'0 0.1
2017-Mar-20 11:33N 38°41' W 009°08'3 2.7
2017-Mar-20 10:28N 38°39' W 009°05'4 4.5
2017-Mar-20 09:33N 38°42' W 009°08'0 0.0
2017-Mar-20 08:33N 38°42' W 009°08'3 2.8
2017-Mar-20 07:33N 38°40' W 009°07'  
2017-Mar-17 21:12N 38°39' W 009°05'4 5.5
2017-Mar-17 20:34N 38°42' W 009°08'2 2.3
2017-Mar-17 19:33N 38°40' W 009°06'3 2.6
2017-Mar-17 18:33N 38°42' W 009°08'0 0.4
2017-Mar-17 17:33N 38°42' W 009°08'1 1.1
2017-Mar-17 16:33N 38°41' W 009°08'3 3.2
2017-Mar-17 15:33N 38°39' W 009°05'2 1.6
2017-Mar-17 14:33N 38°40' W 009°07'0 0.0
2017-Mar-17 13:33N 38°40' W 009°07'1 0.5
2017-Mar-17 10:33N 38°41' W 009°08'3 3.0
2017-Mar-17 09:33N 38°39' W 009°05'2 2.2
2017-Mar-17 08:33N 38°40' W 009°07'2 2.0
2017-Mar-17 07:33N 38°42' W 009°08'0 0.4
2017-Mar-17 06:33N 38°42' W 009°08'0 0.0
2017-Mar-17 05:33N 38°42' W 009°08'4 1.3
2017-Mar-17 02:24N 38°39' W 009°05'0 0.5
2017-Mar-17 01:33N 38°39' W 009°05'0 0.1
2017-Mar-17 00:33N 38°39' W 009°05'0 0.2
2017-Mar-16 23:33N 38°39' W 009°05'1 1.2
2017-Mar-16 22:33N 38°40' W 009°07'0 0.3
2017-Mar-16 21:33N 38°40' W 009°07'2 1.8
2017-Mar-16 20:33N 38°39' W 009°05'0 0.0
2017-Mar-16 19:33N 38°39' W 009°05'1 1.2
2017-Mar-16 18:33N 38°40' W 009°06'3 2.6
2017-Mar-16 17:33N 38°42' W 009°08'0 0.3
2017-Mar-16 16:33N 38°42' W 009°08'1 1.2
2017-Mar-16 15:33N 38°41' W 009°08'0 0.2
2017-Mar-16 14:33N 38°41' W 009°08'0 0.4
2017-Mar-16 13:33N 38°41' W 009°08'0 0.1
2017-Mar-16 12:33N 38°41' W 009°08'  
Track history (hours):
 
Tides and Currents Weather Stations Pressure Air Temp Water Temp Dewpoint Dewpoint Depression Visibility Wind Speed Wind Dir Waves Ship Positions

Gil Vicente

Last reported at 2017-Mar-26 12:33 UTC. Time now 2017-Mar-26 13:02 UTC.
Position N 38°39' W 009°05'.

Length 49 m.

Type: Passenger vessel. MMSI: 263701390.

Date/timePositionNaut miles runAvg speedWind from/ knotsBaromVisibWave heightAir tempDewpointWater temp
2017-Mar-26 12:33N 38°39' W 009°05'1 1.4
2017-Mar-26 11:33N 38°40' W 009°06'0 0.0
2017-Mar-26 10:33N 38°40' W 009°06'0 0.1
2017-Mar-26 09:33N 38°40' W 009°06'0 0.1
2017-Mar-26 08:33N 38°40' W 009°06'0 0.0
2017-Mar-26 07:33N 38°40' W 009°06'0 0.4
2017-Mar-26 06:33N 38°40' W 009°06'1 1.4
2017-Mar-26 05:33N 38°40' W 009°07'2 1.7
2017-Mar-26 04:33N 38°42' W 009°08'4 1.8
2017-Mar-26 02:24N 38°39' W 009°05'0 0.3
2017-Mar-26 01:33N 38°39' W 009°05'0 0.3
2017-Mar-26 00:33N 38°39' W 009°05'0 0.1
2017-Mar-25 23:33N 38°39' W 009°05'1 1.4
2017-Mar-25 22:33N 38°40' W 009°06'1 1.3
2017-Mar-25 21:31N 38°39' W 009°05'0 0.0
2017-Mar-24 21:29N 38°39' W 009°05'4 4.0
2017-Mar-24 20:33N 38°42' W 009°08'3 2.7
2017-Mar-24 19:33N 38°40' W 009°06'3 2.8
2017-Mar-24 18:33N 38°42' W 009°08'0 0.4
2017-Mar-24 17:33N 38°42' W 009°08'1 1.2
2017-Mar-24 16:33N 38°41' W 009°08'3 3.1
2017-Mar-24 15:33N 38°39' W 009°05'1 1.4
2017-Mar-24 14:33N 38°40' W 009°06'0 0.2
2017-Mar-24 13:33N 38°40' W 009°06'1 1.0
2017-Mar-24 12:32N 38°39' W 009°05'0 0.0
2017-Mar-24 11:33N 38°39' W 009°05'3 2.8
2017-Mar-24 10:33N 38°41' W 009°08'3 2.7
2017-Mar-24 09:33N 38°39' W 009°05'1 1.1
2017-Mar-24 08:33N 38°40' W 009°06'3 2.9
2017-Mar-24 07:33N 38°42' W 009°08'0 0.3
2017-Mar-24 06:33N 38°42' W 009°08'0 0.1
2017-Mar-24 05:33N 38°42' W 009°08'4 1.3
2017-Mar-24 02:24N 38°39' W 009°05'0 0.5
2017-Mar-24 01:33N 38°39' W 009°05'0 0.2
2017-Mar-24 00:33N 38°39' W 009°05'0 0.3
2017-Mar-23 23:33N 38°39' W 009°05'1 0.9
2017-Mar-23 22:33N 38°40' W 009°06'0 0.0
2017-Mar-23 21:33N 38°40' W 009°06'1 0.4
2017-Mar-23 18:11N 38°39' W 009°05'4 6.0
2017-Mar-23 17:33N 38°42' W 009°08'0 0.1
2017-Mar-23 16:33N 38°42' W 009°08'1 1.3
2017-Mar-23 15:34N 38°41' W 009°08'0 0.1
2017-Mar-23 14:34N 38°41' W 009°08'0 0.3
2017-Mar-23 13:34N 38°41' W 009°08'0 0.5
2017-Mar-23 12:34N 38°41' W 009°08'1 0.7
2017-Mar-23 11:33N 38°40' W 009°08'3 2.6
2017-Mar-23 10:33N 38°39' W 009°05'2 2.3
2017-Mar-23 09:34N 38°40' W 009°07'2 0.8
2017-Mar-23 06:33N 38°42' W 009°08'0 0.0
2017-Mar-23 05:33N 38°42' W 009°08'4 4.2
2017-Mar-23 04:33N 38°39' W 009°05'0 0.0
2017-Mar-23 03:33N 38°39' W 009°05'0 0.0
2017-Mar-23 02:33N 38°39' W 009°05'1 0.5
2017-Mar-23 01:33N 38°39' W 009°05'0 0.2
2017-Mar-23 00:33N 38°39' W 009°05'0 0.3
2017-Mar-22 23:33N 38°39' W 009°05'1 1.1
2017-Mar-22 22:33N 38°40' W 009°07'0 0.2
2017-Mar-22 21:33N 38°40' W 009°07'2 1.8
2017-Mar-22 20:33N 38°39' W 009°05'0 0.0
2017-Mar-22 19:33N 38°39' W 009°05'2 1.5
2017-Mar-22 18:31N 38°40' W 009°07'2 2.4
2017-Mar-22 17:33N 38°42' W 009°08'1 0.5
2017-Mar-22 16:33N 38°42' W 009°08'2 1.8
2017-Mar-22 15:33N 38°41' W 009°08'0 0.1
2017-Mar-22 14:33N 38°41' W 009°08'0 0.1
2017-Mar-22 13:33N 38°41' W 009°08'0 0.1
2017-Mar-22 12:33N 38°41' W 009°08'0 0.2
2017-Mar-22 11:33N 38°41' W 009°08'3 2.9
2017-Mar-22 10:33N 38°39' W 009°05'4 4.2
2017-Mar-22 09:33N 38°42' W 009°08'0 0.0
2017-Mar-22 08:33N 38°42' W 009°08'2 2.4
2017-Mar-22 07:33N 38°40' W 009°07'2 0.2
2017-Mar-21 21:20N 38°39' W 009°05'3 4.3
2017-Mar-21 20:33N 38°42' W 009°08'2 2.0
2017-Mar-21 19:33N 38°40' W 009°07'2 1.9
2017-Mar-21 18:33N 38°42' W 009°08'1 0.9
2017-Mar-21 17:33N 38°42' W 009°08'1 1.0
2017-Mar-21 16:33N 38°41' W 009°08'3 3.2
2017-Mar-21 15:33N 38°39' W 009°05'2 1.6
2017-Mar-21 14:33N 38°40' W 009°07'0 0.0
2017-Mar-21 13:33N 38°40' W 009°06'1 1.5
2017-Mar-21 12:33N 38°39' W 009°05'0 0.0
2017-Mar-21 11:33N 38°39' W 009°05'3 2.8
2017-Mar-21 10:33N 38°41' W 009°08'3 2.8
2017-Mar-21 09:33N 38°39' W 009°05'1 1.3
2017-Mar-21 08:33N 38°40' W 009°06'3 2.7
2017-Mar-21 07:33N 38°42' W 009°08'0 0.4
2017-Mar-21 06:33N 38°42' W 009°08'0 0.0
2017-Mar-21 05:33N 38°42' W 009°08'4 4.1
2017-Mar-21 04:33N 38°39' W 009°05'0 0.0
2017-Mar-21 03:33N 38°39' W 009°05'0 0.0
2017-Mar-21 02:33N 38°39' W 009°05'0 0.1
2017-Mar-21 01:32N 38°39' W 009°05'0 0.4
2017-Mar-21 00:33N 38°39' W 009°05'0 0.2
2017-Mar-20 23:32N 38°39' W 009°05'1 1.5
2017-Mar-20 22:33N 38°40' W 009°07'0 0.3
2017-Mar-20 21:33N 38°40' W 009°06'1 1.5
2017-Mar-20 20:33N 38°39' W 009°05'0 0.0
2017-Mar-20 19:33N 38°39' W 009°05'1 0.9
2017-Mar-20 18:33N 38°39' W 009°06'3 3.1
2017-Mar-20 17:33N 38°42' W 009°08'0 0.2
2017-Mar-20 16:33N 38°42' W 009°08'1 1.3
2017-Mar-20 15:33N 38°41' W 009°08'0 0.1
2017-Mar-20 14:33N 38°41' W 009°08'0 0.0
2017-Mar-20 13:33N 38°41' W 009°08'0 0.0
2017-Mar-20 12:33N 38°41' W 009°08'0 0.1
2017-Mar-20 11:33N 38°41' W 009°08'3 2.7
2017-Mar-20 10:28N 38°39' W 009°05'4 4.5
2017-Mar-20 09:33N 38°42' W 009°08'0 0.0
2017-Mar-20 08:33N 38°42' W 009°08'3 2.8
2017-Mar-20 07:33N 38°40' W 009°07'  
2017-Mar-17 21:12N 38°39' W 009°05'4 5.5
2017-Mar-17 20:34N 38°42' W 009°08'2 2.3
2017-Mar-17 19:33N 38°40' W 009°06'3 2.6
2017-Mar-17 18:33N 38°42' W 009°08'0 0.4
2017-Mar-17 17:33N 38°42' W 009°08'1 1.1
2017-Mar-17 16:33N 38°41' W 009°08'3 3.2
2017-Mar-17 15:33N 38°39' W 009°05'2 1.6
2017-Mar-17 14:33N 38°40' W 009°07'0 0.0
2017-Mar-17 13:33N 38°40' W 009°07'1 0.5
2017-Mar-17 10:33N 38°41' W 009°08'3 3.0
2017-Mar-17 09:33N 38°39' W 009°05'2 2.2
2017-Mar-17 08:33N 38°40' W 009°07'2 2.0
2017-Mar-17 07:33N 38°42' W 009°08'0 0.4
2017-Mar-17 06:33N 38°42' W 009°08'0 0.0
2017-Mar-17 05:33N 38°42' W 009°08'4 1.3
2017-Mar-17 02:24N 38°39' W 009°05'0 0.5
2017-Mar-17 01:33N 38°39' W 009°05'0 0.1
2017-Mar-17 00:33N 38°39' W 009°05'0 0.2
2017-Mar-16 23:33N 38°39' W 009°05'1 1.2
2017-Mar-16 22:33N 38°40' W 009°07'0 0.3
2017-Mar-16 21:33N 38°40' W 009°07'2 1.8
2017-Mar-16 20:33N 38°39' W 009°05'0 0.0
2017-Mar-16 19:33N 38°39' W 009°05'1 1.2
2017-Mar-16 18:33N 38°40' W 009°06'3 2.6
2017-Mar-16 17:33N 38°42' W 009°08'0 0.3
2017-Mar-16 16:33N 38°42' W 009°08'1 1.2
2017-Mar-16 15:33N 38°41' W 009°08'0 0.2
2017-Mar-16 14:33N 38°41' W 009°08'0 0.4
2017-Mar-16 13:33N 38°41' W 009°08'0 0.1
2017-Mar-16 12:33N 38°41' W 009°08'  

Dump ship's entire track history